KOMK/OMK METAR and TAF weather

Enter ICAO airport designator
Station Type Date Time Source
KOMK METAR 2020/07/14 05:53 UTC NOAA

KOMK 140553Z AUTO 30012KT 10SM CLR 18/04 A3000 RMK AO2 SLP155 T01780044 10278 20172 53010


Station Type Date Time Source
KOMK Decoded METAR 2020/07/14 05:53 UTC NOAA

OMAK AIRPORT, WA, United States (KOMK) 48-28N 119-31W 395M
Jul 14, 2020 - 01:53 AM EDT / 2020.07.14 0553 UTC
Wind: from the WNW (300 degrees) at 14 MPH (12 KT):0
Visibility: 10 mile(s):0
Sky conditions: clear
Temperature: 64.0 F (17.8 C)
Dew Point: 39.9 F (4.4 C)
Relative Humidity: 41%
Pressure (altimeter): 30 in. Hg (1015 hPa)
Pressure tendency: 0.03 inches (1.0 hPa) higher than three hours ago
ob: KOMK 140553Z AUTO 30012KT 10SM CLR 18/04 A3000 RMK AO2 SLP155 T01780044 10278 20172 53010
cycle: 6

Station Type Date Time Source
KOMK TAF UTC NOAA

Error!

Example: see airport list